sensor_id;sensor_type;location;lat;lon;timestamp;P1;durP1;ratioP1;P2;durP2;ratioP2
46365;SDS011;32073;49.166;8.076;2023-03-23T00:01:58;14.77;;;6.68;;
46365;SDS011;32073;49.166;8.076;2023-03-23T00:05:59;13.52;;;5.78;;
46365;SDS011;32073;49.166;8.076;2023-03-23T00:10:04;16.27;;;6.65;;
46365;SDS011;32073;49.166;8.076;2023-03-23T00:14:07;21.05;;;8.20;;
46365;SDS011;32073;49.166;8.076;2023-03-23T00:18:12;11.43;;;4.88;;
46365;SDS011;32073;49.166;8.076;2023-03-23T00:26:25;8.77;;;3.78;;
46365;SDS011;32073;49.166;8.076;2023-03-23T00:30:28;5.10;;;2.60;;
46365;SDS011;32073;49.166;8.076;2023-03-23T00:34:29;5.63;;;2.58;;
46365;SDS011;32073;49.166;8.076;2023-03-23T00:38:33;8.45;;;3.80;;
46365;SDS011;32073;49.166;8.076;2023-03-23T00:42:35;2.85;;;1.40;;
46365;SDS011;32073;49.166;8.076;2023-03-23T00:46:37;1.80;;;1.05;;
46365;SDS011;32073;49.166;8.076;2023-03-23T00:50:44;2.10;;;0.98;;
46365;SDS011;32073;49.166;8.076;2023-03-23T00:54:45;0.70;;;0.68;;
46365;SDS011;32073;49.166;8.076;2023-03-23T00:58:46;1.23;;;0.65;;
46365;SDS011;32073;49.166;8.076;2023-03-23T01:02:46;1.55;;;0.80;;
46365;SDS011;32073;49.166;8.076;2023-03-23T01:06:48;1.85;;;0.65;;
46365;SDS011;32073;49.166;8.076;2023-03-23T01:10:50;2.17;;;0.77;;
46365;SDS011;32073;49.166;8.076;2023-03-23T01:14:51;1.70;;;0.90;;
46365;SDS011;32073;49.166;8.076;2023-03-23T01:18:51;0.90;;;0.63;;
46365;SDS011;32073;49.166;8.076;2023-03-23T01:22:52;1.27;;;0.73;;
46365;SDS011;32073;49.166;8.076;2023-03-23T01:27:00;0.98;;;0.60;;
46365;SDS011;32073;49.166;8.076;2023-03-23T01:31:07;1.80;;;0.73;;
46365;SDS011;32073;49.166;8.076;2023-03-23T01:35:14;1.20;;;0.63;;
46365;SDS011;32073;49.166;8.076;2023-03-23T01:39:15;1.13;;;0.70;;
46365;SDS011;32073;49.166;8.076;2023-03-23T01:43:16;1.48;;;0.60;;
46365;SDS011;32073;49.166;8.076;2023-03-23T01:47:16;1.30;;;0.70;;
46365;SDS011;32073;49.166;8.076;2023-03-23T01:51:23;1.33;;;0.63;;
46365;SDS011;32073;49.166;8.076;2023-03-23T01:55:26;0.70;;;0.60;;
46365;SDS011;32073;49.166;8.076;2023-03-23T01:59:27;1.30;;;0.55;;
46365;SDS011;32073;49.166;8.076;2023-03-23T02:03:30;0.98;;;0.60;;
46365;SDS011;32073;49.166;8.076;2023-03-23T02:07:32;1.13;;;0.70;;
46365;SDS011;32073;49.166;8.076;2023-03-23T02:11:34;1.90;;;0.60;;
46365;SDS011;32073;49.166;8.076;2023-03-23T02:15:53;1.75;;;0.70;;
46365;SDS011;32073;49.166;8.076;2023-03-23T02:20:18;2.03;;;0.90;;
46365;SDS011;32073;49.166;8.076;2023-03-23T02:29:19;1.05;;;0.60;;
46365;SDS011;32073;49.166;8.076;2023-03-23T02:38:31;2.42;;;0.70;;
46365;SDS011;32073;49.166;8.076;2023-03-23T02:42:41;3.63;;;0.80;;
46365;SDS011;32073;49.166;8.076;2023-03-23T02:46:45;0.90;;;0.70;;
46365;SDS011;32073;49.166;8.076;2023-03-23T02:50:49;0.77;;;0.60;;
46365;SDS011;32073;49.166;8.076;2023-03-23T02:54:52;1.33;;;1.05;;
46365;SDS011;32073;49.166;8.076;2023-03-23T02:58:55;1.38;;;0.90;;
46365;SDS011;32073;49.166;8.076;2023-03-23T03:02:56;1.55;;;0.90;;
46365;SDS011;32073;49.166;8.076;2023-03-23T03:11:26;2.90;;;1.20;;
46365;SDS011;32073;49.166;8.076;2023-03-23T03:15:29;2.45;;;1.00;;
46365;SDS011;32073;49.166;8.076;2023-03-23T03:19:40;2.97;;;0.80;;
46365;SDS011;32073;49.166;8.076;2023-03-23T03:27:49;1.88;;;1.02;;
46365;SDS011;32073;49.166;8.076;2023-03-23T03:31:52;2.45;;;1.00;;
46365;SDS011;32073;49.166;8.076;2023-03-23T03:36:01;2.58;;;1.00;;
46365;SDS011;32073;49.166;8.076;2023-03-23T03:40:05;1.33;;;0.95;;
46365;SDS011;32073;49.166;8.076;2023-03-23T03:44:11;1.58;;;0.93;;
46365;SDS011;32073;49.166;8.076;2023-03-23T03:48:12;2.10;;;1.00;;
46365;SDS011;32073;49.166;8.076;2023-03-23T03:52:12;1.60;;;1.08;;
46365;SDS011;32073;49.166;8.076;2023-03-23T03:56:14;2.00;;;1.00;;
46365;SDS011;32073;49.166;8.076;2023-03-23T04:00:15;1.60;;;0.98;;
46365;SDS011;32073;49.166;8.076;2023-03-23T04:04:17;1.27;;;0.95;;
46365;SDS011;32073;49.166;8.076;2023-03-23T04:08:17;1.75;;;0.88;;
46365;SDS011;32073;49.166;8.076;2023-03-23T04:12:18;1.67;;;1.00;;
46365;SDS011;32073;49.166;8.076;2023-03-23T04:16:19;2.00;;;1.27;;
46365;SDS011;32073;49.166;8.076;2023-03-23T04:20:21;1.67;;;1.05;;
46365;SDS011;32073;49.166;8.076;2023-03-23T04:24:21;1.55;;;1.05;;
46365;SDS011;32073;49.166;8.076;2023-03-23T04:28:23;1.40;;;1.00;;
46365;SDS011;32073;49.166;8.076;2023-03-23T04:32:25;2.20;;;1.10;;
46365;SDS011;32073;49.166;8.076;2023-03-23T04:36:28;1.58;;;1.30;;
46365;SDS011;32073;49.166;8.076;2023-03-23T04:40:29;2.08;;;1.00;;
46365;SDS011;32073;49.166;8.076;2023-03-23T04:44:30;1.48;;;1.02;;
46365;SDS011;32073;49.166;8.076;2023-03-23T04:48:32;2.90;;;1.25;;
46365;SDS011;32073;49.166;8.076;2023-03-23T04:52:33;2.20;;;1.38;;
46365;SDS011;32073;49.166;8.076;2023-03-23T04:56:34;1.67;;;1.10;;
46365;SDS011;32073;49.166;8.076;2023-03-23T05:00:36;2.20;;;1.02;;
46365;SDS011;32073;49.166;8.076;2023-03-23T05:04:37;1.25;;;0.68;;
46365;SDS011;32073;49.166;8.076;2023-03-23T05:08:37;1.15;;;0.50;;
46365;SDS011;32073;49.166;8.076;2023-03-23T05:12:41;0.70;;;0.47;;
46365;SDS011;32073;49.166;8.076;2023-03-23T05:16:43;0.90;;;0.55;;
46365;SDS011;32073;49.166;8.076;2023-03-23T05:20:47;1.40;;;0.70;;
46365;SDS011;32073;49.166;8.076;2023-03-23T05:24:48;1.35;;;0.70;;
46365;SDS011;32073;49.166;8.076;2023-03-23T05:28:52;0.95;;;0.70;;
46365;SDS011;32073;49.166;8.076;2023-03-23T05:32:53;0.60;;;0.40;;
46365;SDS011;32073;49.166;8.076;2023-03-23T05:36:53;1.40;;;0.77;;
46365;SDS011;32073;49.166;8.076;2023-03-23T05:40:58;0.93;;;0.50;;
46365;SDS011;32073;49.166;8.076;2023-03-23T05:45:03;0.88;;;0.52;;
46365;SDS011;32073;49.166;8.076;2023-03-23T05:49:05;1.10;;;0.60;;
46365;SDS011;32073;49.166;8.076;2023-03-23T05:53:05;1.73;;;0.60;;
46365;SDS011;32073;49.166;8.076;2023-03-23T05:57:06;1.05;;;0.60;;
46365;SDS011;32073;49.166;8.076;2023-03-23T06:01:08;1.05;;;0.57;;
46365;SDS011;32073;49.166;8.076;2023-03-23T06:05:10;1.50;;;0.60;;
46365;SDS011;32073;49.166;8.076;2023-03-23T06:09:11;1.00;;;0.70;;
46365;SDS011;32073;49.166;8.076;2023-03-23T06:13:11;1.92;;;0.70;;
46365;SDS011;32073;49.166;8.076;2023-03-23T06:17:13;1.10;;;0.50;;
46365;SDS011;32073;49.166;8.076;2023-03-23T06:21:17;0.43;;;0.40;;
46365;SDS011;32073;49.166;8.076;2023-03-23T06:25:21;2.13;;;0.60;;
46365;SDS011;32073;49.166;8.076;2023-03-23T06:29:24;1.80;;;0.60;;
46365;SDS011;32073;49.166;8.076;2023-03-23T06:33:25;0.68;;;0.55;;
46365;SDS011;32073;49.166;8.076;2023-03-23T06:37:25;3.28;;;0.80;;
46365;SDS011;32073;49.166;8.076;2023-03-23T06:41:26;3.38;;;0.93;;
46365;SDS011;32073;49.166;8.076;2023-03-23T06:45:26;0.82;;;0.68;;
46365;SDS011;32073;49.166;8.076;2023-03-23T06:49:27;0.70;;;0.40;;
46365;SDS011;32073;49.166;8.076;2023-03-23T06:53:28;0.80;;;0.52;;
46365;SDS011;32073;49.166;8.076;2023-03-23T06:57:28;0.52;;;0.50;;
46365;SDS011;32073;49.166;8.076;2023-03-23T07:01:29;0.80;;;0.47;;
46365;SDS011;32073;49.166;8.076;2023-03-23T07:05:30;1.65;;;0.75;;
46365;SDS011;32073;49.166;8.076;2023-03-23T07:09:35;1.35;;;0.52;;
46365;SDS011;32073;49.166;8.076;2023-03-23T07:13:36;0.55;;;0.50;;
46365;SDS011;32073;49.166;8.076;2023-03-23T07:17:37;2.20;;;0.50;;
46365;SDS011;32073;49.166;8.076;2023-03-23T07:21:39;1.75;;;0.50;;
46365;SDS011;32073;49.166;8.076;2023-03-23T07:25:40;0.90;;;0.52;;
46365;SDS011;32073;49.166;8.076;2023-03-23T07:29:42;1.42;;;0.60;;
46365;SDS011;32073;49.166;8.076;2023-03-23T07:33:44;0.90;;;0.60;;
46365;SDS011;32073;49.166;8.076;2023-03-23T07:37:45;2.58;;;0.68;;
46365;SDS011;32073;49.166;8.076;2023-03-23T07:41:48;1.75;;;0.50;;
46365;SDS011;32073;49.166;8.076;2023-03-23T07:45:49;1.60;;;0.70;;
46365;SDS011;32073;49.166;8.076;2023-03-23T07:49:50;4.95;;;0.80;;
46365;SDS011;32073;49.166;8.076;2023-03-23T07:53:51;1.80;;;0.68;;
46365;SDS011;32073;49.166;8.076;2023-03-23T07:57:52;1.70;;;0.85;;
46365;SDS011;32073;49.166;8.076;2023-03-23T08:01:53;1.55;;;0.80;;
46365;SDS011;32073;49.166;8.076;2023-03-23T08:05:57;0.90;;;0.50;;
46365;SDS011;32073;49.166;8.076;2023-03-23T08:09:59;1.50;;;0.80;;
46365;SDS011;32073;49.166;8.076;2023-03-23T08:14:01;1.08;;;0.50;;
46365;SDS011;32073;49.166;8.076;2023-03-23T08:18:02;1.98;;;0.50;;
46365;SDS011;32073;49.166;8.076;2023-03-23T08:22:04;1.92;;;0.73;;
46365;SDS011;32073;49.166;8.076;2023-03-23T08:26:05;0.80;;;0.57;;
46365;SDS011;32073;49.166;8.076;2023-03-23T08:30:07;1.30;;;0.90;;
46365;SDS011;32073;49.166;8.076;2023-03-23T08:34:09;2.08;;;0.77;;
46365;SDS011;32073;49.166;8.076;2023-03-23T08:38:11;1.77;;;0.50;;
46365;SDS011;32073;49.166;8.076;2023-03-23T08:42:12;1.13;;;0.65;;
46365;SDS011;32073;49.166;8.076;2023-03-23T08:46:13;1.95;;;0.93;;
46365;SDS011;32073;49.166;8.076;2023-03-23T08:50:15;1.10;;;0.70;;
46365;SDS011;32073;49.166;8.076;2023-03-23T08:54:17;2.63;;;0.98;;
46365;SDS011;32073;49.166;8.076;2023-03-23T08:58:19;1.02;;;0.60;;
46365;SDS011;32073;49.166;8.076;2023-03-23T09:02:19;2.03;;;0.70;;
46365;SDS011;32073;49.166;8.076;2023-03-23T09:06:20;0.88;;;0.65;;
46365;SDS011;32073;49.166;8.076;2023-03-23T09:10:22;1.55;;;0.80;;
46365;SDS011;32073;49.166;8.076;2023-03-23T09:14:24;1.75;;;0.80;;
46365;SDS011;32073;49.166;8.076;2023-03-23T09:18:25;1.27;;;0.70;;
46365;SDS011;32073;49.166;8.076;2023-03-23T09:22:26;4.63;;;1.75;;
46365;SDS011;32073;49.166;8.076;2023-03-23T09:26:27;1.25;;;0.73;;
46365;SDS011;32073;49.166;8.076;2023-03-23T09:30:29;0.80;;;0.80;;
46365;SDS011;32073;49.166;8.076;2023-03-23T09:34:33;0.95;;;0.80;;
46365;SDS011;32073;49.166;8.076;2023-03-23T09:38:35;1.33;;;0.77;;
46365;SDS011;32073;49.166;8.076;2023-03-23T09:51:00;1.63;;;0.70;;
46365;SDS011;32073;49.166;8.076;2023-03-23T09:55:29;0.93;;;0.60;;
46365;SDS011;32073;49.166;8.076;2023-03-23T10:00:06;2.20;;;0.57;;
46365;SDS011;32073;49.166;8.076;2023-03-23T10:04:21;0.95;;;0.43;;
46365;SDS011;32073;49.166;8.076;2023-03-23T10:08:33;1.40;;;0.80;;
46365;SDS011;32073;49.166;8.076;2023-03-23T10:13:01;1.75;;;0.70;;
46365;SDS011;32073;49.166;8.076;2023-03-23T10:17:24;0.68;;;0.50;;
46365;SDS011;32073;49.166;8.076;2023-03-23T10:21:30;1.23;;;0.60;;
46365;SDS011;32073;49.166;8.076;2023-03-23T10:25:36;0.60;;;0.55;;
46365;SDS011;32073;49.166;8.076;2023-03-23T10:29:42;0.88;;;0.70;;
46365;SDS011;32073;49.166;8.076;2023-03-23T10:38:02;0.60;;;0.60;;
46365;SDS011;32073;49.166;8.076;2023-03-23T10:42:10;1.30;;;0.77;;
46365;SDS011;32073;49.166;8.076;2023-03-23T10:50:35;0.82;;;0.68;;
46365;SDS011;32073;49.166;8.076;2023-03-23T10:59:25;2.58;;;0.60;;
46365;SDS011;32073;49.166;8.076;2023-03-23T11:03:38;2.10;;;0.52;;
46365;SDS011;32073;49.166;8.076;2023-03-23T11:07:48;0.65;;;0.47;;
46365;SDS011;32073;49.166;8.076;2023-03-23T11:11:54;1.08;;;0.57;;
46365;SDS011;32073;49.166;8.076;2023-03-23T11:15:55;0.70;;;0.57;;
46365;SDS011;32073;49.166;8.076;2023-03-23T11:19:56;0.57;;;0.50;;
46365;SDS011;32073;49.166;8.076;2023-03-23T11:23:58;0.80;;;0.50;;
46365;SDS011;32073;49.166;8.076;2023-03-23T11:27:59;0.60;;;0.50;;
46365;SDS011;32073;49.166;8.076;2023-03-23T11:32:05;0.50;;;0.40;;
46365;SDS011;32073;49.166;8.076;2023-03-23T11:36:10;1.00;;;0.40;;
46365;SDS011;32073;49.166;8.076;2023-03-23T11:40:17;1.10;;;0.43;;
46365;SDS011;32073;49.166;8.076;2023-03-23T11:44:23;0.95;;;0.40;;
46365;SDS011;32073;49.166;8.076;2023-03-23T11:57:23;0.85;;;0.45;;
46365;SDS011;32073;49.166;8.076;2023-03-23T12:01:29;0.60;;;0.47;;
46365;SDS011;32073;49.166;8.076;2023-03-23T12:14:38;0.80;;;0.60;;
46365;SDS011;32073;49.166;8.076;2023-03-23T12:23:29;1.15;;;0.43;;
46365;SDS011;32073;49.166;8.076;2023-03-23T12:27:48;0.75;;;0.50;;
46365;SDS011;32073;49.166;8.076;2023-03-23T12:32:06;1.23;;;0.77;;
46365;SDS011;32073;49.166;8.076;2023-03-23T12:36:57;1.80;;;1.30;;
46365;SDS011;32073;49.166;8.076;2023-03-23T12:41:20;1.20;;;0.82;;
46365;SDS011;32073;49.166;8.076;2023-03-23T12:45:46;3.28;;;1.38;;
46365;SDS011;32073;49.166;8.076;2023-03-23T12:50:16;1.35;;;1.15;;
46365;SDS011;32073;49.166;8.076;2023-03-23T12:54:51;1.88;;;0.80;;
46365;SDS011;32073;49.166;8.076;2023-03-23T12:59:03;1.58;;;0.70;;
46365;SDS011;32073;49.166;8.076;2023-03-23T13:03:15;0.70;;;0.70;;
46365;SDS011;32073;49.166;8.076;2023-03-23T13:07:32;1.55;;;0.70;;
46365;SDS011;32073;49.166;8.076;2023-03-23T13:11:40;2.88;;;1.02;;
46365;SDS011;32073;49.166;8.076;2023-03-23T13:24:33;1.20;;;0.82;;
46365;SDS011;32073;49.166;8.076;2023-03-23T13:33:03;0.80;;;0.73;;
46365;SDS011;32073;49.166;8.076;2023-03-23T13:37:10;1.17;;;0.70;;
46365;SDS011;32073;49.166;8.076;2023-03-23T13:41:23;1.83;;;0.70;;
46365;SDS011;32073;49.166;8.076;2023-03-23T13:49:32;1.30;;;0.70;;
46365;SDS011;32073;49.166;8.076;2023-03-23T13:53:46;2.72;;;0.70;;
46365;SDS011;32073;49.166;8.076;2023-03-23T13:57:49;0.73;;;0.70;;
46365;SDS011;32073;49.166;8.076;2023-03-23T14:01:53;0.73;;;0.60;;
46365;SDS011;32073;49.166;8.076;2023-03-23T14:10:04;1.45;;;0.77;;
46365;SDS011;32073;49.166;8.076;2023-03-23T14:14:07;1.48;;;0.65;;
46365;SDS011;32073;49.166;8.076;2023-03-23T14:18:20;0.98;;;0.60;;
46365;SDS011;32073;49.166;8.076;2023-03-23T14:22:28;1.30;;;0.80;;
46365;SDS011;32073;49.166;8.076;2023-03-23T14:26:34;1.38;;;0.80;;
46365;SDS011;32073;49.166;8.076;2023-03-23T14:30:36;7.50;;;0.90;;
46365;SDS011;32073;49.166;8.076;2023-03-23T14:34:37;4.30;;;0.93;;
46365;SDS011;32073;49.166;8.076;2023-03-23T14:38:38;2.58;;;1.10;;
46365;SDS011;32073;49.166;8.076;2023-03-23T14:42:39;1.45;;;1.05;;
46365;SDS011;32073;49.166;8.076;2023-03-23T14:46:40;2.30;;;1.17;;
46365;SDS011;32073;49.166;8.076;2023-03-23T14:50:50;1.92;;;1.05;;
46365;SDS011;32073;49.166;8.076;2023-03-23T14:55:38;2.58;;;1.17;;
46365;SDS011;32073;49.166;8.076;2023-03-23T14:59:31;2.53;;;1.20;;
46365;SDS011;32073;49.166;8.076;2023-03-23T15:03:34;0.82;;;0.70;;
46365;SDS011;32073;49.166;8.076;2023-03-23T15:07:43;1.83;;;0.85;;
46365;SDS011;32073;49.166;8.076;2023-03-23T15:11:55;1.52;;;0.88;;
46365;SDS011;32073;49.166;8.076;2023-03-23T15:16:01;1.60;;;0.80;;
46365;SDS011;32073;49.166;8.076;2023-03-23T15:24:48;1.48;;;0.98;;
46365;SDS011;32073;49.166;8.076;2023-03-23T15:33:26;1.98;;;0.77;;
46365;SDS011;32073;49.166;8.076;2023-03-23T15:37:33;1.35;;;0.90;;
46365;SDS011;32073;49.166;8.076;2023-03-23T15:41:48;1.73;;;0.90;;
46365;SDS011;32073;49.166;8.076;2023-03-23T15:45:52;4.10;;;2.00;;
46365;SDS011;32073;49.166;8.076;2023-03-23T15:50:15;5.18;;;2.95;;
46365;SDS011;32073;49.166;8.076;2023-03-23T15:54:29;5.93;;;2.85;;
46365;SDS011;32073;49.166;8.076;2023-03-23T15:58:32;10.00;;;4.93;;
46365;SDS011;32073;49.166;8.076;2023-03-23T16:02:34;18.58;;;9.55;;
46365;SDS011;32073;49.166;8.076;2023-03-23T16:06:36;21.05;;;11.20;;
46365;SDS011;32073;49.166;8.076;2023-03-23T16:10:37;12.13;;;6.05;;
46365;SDS011;32073;49.166;8.076;2023-03-23T16:14:38;9.23;;;5.47;;
46365;SDS011;32073;49.166;8.076;2023-03-23T16:18:40;9.98;;;5.45;;
46365;SDS011;32073;49.166;8.076;2023-03-23T16:22:40;11.13;;;6.15;;
46365;SDS011;32073;49.166;8.076;2023-03-23T16:26:41;10.88;;;7.25;;
46365;SDS011;32073;49.166;8.076;2023-03-23T16:30:43;18.10;;;11.90;;
46365;SDS011;32073;49.166;8.076;2023-03-23T16:34:44;5.47;;;4.13;;
46365;SDS011;32073;49.166;8.076;2023-03-23T16:38:45;2.08;;;1.63;;
46365;SDS011;32073;49.166;8.076;2023-03-23T16:42:45;2.70;;;1.20;;
46365;SDS011;32073;49.166;8.076;2023-03-23T16:46:46;1.88;;;0.90;;
46365;SDS011;32073;49.166;8.076;2023-03-23T16:50:47;30.98;;;16.02;;
46365;SDS011;32073;49.166;8.076;2023-03-23T16:54:48;15.30;;;8.95;;
46365;SDS011;32073;49.166;8.076;2023-03-23T16:58:49;8.50;;;5.07;;
46365;SDS011;32073;49.166;8.076;2023-03-23T17:02:50;5.07;;;2.70;;
46365;SDS011;32073;49.166;8.076;2023-03-23T17:06:55;13.43;;;8.50;;
46365;SDS011;32073;49.166;8.076;2023-03-23T17:10:59;7.03;;;4.65;;
46365;SDS011;32073;49.166;8.076;2023-03-23T17:15:00;2.75;;;2.15;;
46365;SDS011;32073;49.166;8.076;2023-03-23T17:19:02;10.05;;;4.55;;
46365;SDS011;32073;49.166;8.076;2023-03-23T17:23:03;3.72;;;2.45;;
46365;SDS011;32073;49.166;8.076;2023-03-23T17:27:04;4.40;;;2.42;;
46365;SDS011;32073;49.166;8.076;2023-03-23T17:31:05;3.10;;;2.10;;
46365;SDS011;32073;49.166;8.076;2023-03-23T17:35:06;3.05;;;1.55;;
46365;SDS011;32073;49.166;8.076;2023-03-23T17:39:07;3.13;;;1.70;;
46365;SDS011;32073;49.166;8.076;2023-03-23T17:43:08;2.83;;;1.67;;
46365;SDS011;32073;49.166;8.076;2023-03-23T17:47:10;9.95;;;5.50;;
46365;SDS011;32073;49.166;8.076;2023-03-23T17:51:11;8.73;;;4.45;;
46365;SDS011;32073;49.166;8.076;2023-03-23T17:55:14;5.25;;;2.65;;
46365;SDS011;32073;49.166;8.076;2023-03-23T17:59:16;7.38;;;3.53;;
46365;SDS011;32073;49.166;8.076;2023-03-23T18:03:17;4.25;;;2.13;;
46365;SDS011;32073;49.166;8.076;2023-03-23T18:07:17;3.38;;;2.00;;
46365;SDS011;32073;49.166;8.076;2023-03-23T18:11:22;3.00;;;1.92;;
46365;SDS011;32073;49.166;8.076;2023-03-23T18:15:22;9.32;;;4.97;;
46365;SDS011;32073;49.166;8.076;2023-03-23T18:19:23;9.57;;;4.82;;
46365;SDS011;32073;49.166;8.076;2023-03-23T18:23:24;8.02;;;5.03;;
46365;SDS011;32073;49.166;8.076;2023-03-23T18:27:25;5.40;;;3.25;;
46365;SDS011;32073;49.166;8.076;2023-03-23T18:31:26;4.80;;;2.20;;
46365;SDS011;32073;49.166;8.076;2023-03-23T18:35:26;3.20;;;2.08;;
46365;SDS011;32073;49.166;8.076;2023-03-23T18:39:27;3.70;;;2.22;;
46365;SDS011;32073;49.166;8.076;2023-03-23T18:43:30;4.35;;;2.65;;
46365;SDS011;32073;49.166;8.076;2023-03-23T18:47:34;4.15;;;2.45;;
46365;SDS011;32073;49.166;8.076;2023-03-23T18:51:40;3.17;;;2.42;;
46365;SDS011;32073;49.166;8.076;2023-03-23T18:55:41;3.38;;;2.42;;
46365;SDS011;32073;49.166;8.076;2023-03-23T18:59:43;3.92;;;2.97;;
46365;SDS011;32073;49.166;8.076;2023-03-23T19:03:44;10.48;;;7.78;;
46365;SDS011;32073;49.166;8.076;2023-03-23T19:07:45;6.45;;;4.90;;
46365;SDS011;32073;49.166;8.076;2023-03-23T19:11:46;19.83;;;14.52;;
46365;SDS011;32073;49.166;8.076;2023-03-23T19:15:46;8.30;;;6.53;;
46365;SDS011;32073;49.166;8.076;2023-03-23T19:19:47;5.05;;;4.05;;
46365;SDS011;32073;49.166;8.076;2023-03-23T19:23:47;6.18;;;3.58;;
46365;SDS011;32073;49.166;8.076;2023-03-23T19:27:48;5.43;;;3.35;;
46365;SDS011;32073;49.166;8.076;2023-03-23T19:31:49;3.25;;;2.85;;
46365;SDS011;32073;49.166;8.076;2023-03-23T19:35:51;5.03;;;3.00;;
46365;SDS011;32073;49.166;8.076;2023-03-23T19:39:54;5.53;;;3.42;;
46365;SDS011;32073;49.166;8.076;2023-03-23T19:43:55;3.90;;;2.95;;
46365;SDS011;32073;49.166;8.076;2023-03-23T19:47:55;5.00;;;1.98;;
46365;SDS011;32073;49.166;8.076;2023-03-23T19:51:56;2.92;;;2.10;;
46365;SDS011;32073;49.166;8.076;2023-03-23T19:55:57;3.05;;;1.88;;
46365;SDS011;32073;49.166;8.076;2023-03-23T19:59:58;4.20;;;2.35;;
46365;SDS011;32073;49.166;8.076;2023-03-23T20:03:59;3.15;;;2.25;;
46365;SDS011;32073;49.166;8.076;2023-03-23T20:08:03;3.92;;;2.47;;
46365;SDS011;32073;49.166;8.076;2023-03-23T20:12:04;3.40;;;1.90;;
46365;SDS011;32073;49.166;8.076;2023-03-23T20:16:06;3.53;;;2.05;;
46365;SDS011;32073;49.166;8.076;2023-03-23T20:20:08;2.83;;;1.90;;
46365;SDS011;32073;49.166;8.076;2023-03-23T20:24:09;2.78;;;1.80;;
46365;SDS011;32073;49.166;8.076;2023-03-23T20:28:10;4.57;;;2.70;;
46365;SDS011;32073;49.166;8.076;2023-03-23T20:32:11;4.30;;;2.47;;
46365;SDS011;32073;49.166;8.076;2023-03-23T20:36:12;3.63;;;2.65;;
46365;SDS011;32073;49.166;8.076;2023-03-23T20:40:18;6.43;;;3.75;;
46365;SDS011;32073;49.166;8.076;2023-03-23T20:44:19;13.18;;;6.72;;
46365;SDS011;32073;49.166;8.076;2023-03-23T20:48:24;5.82;;;3.40;;
46365;SDS011;32073;49.166;8.076;2023-03-23T20:52:28;3.88;;;2.92;;
46365;SDS011;32073;49.166;8.076;2023-03-23T20:56:29;3.70;;;2.53;;
46365;SDS011;32073;49.166;8.076;2023-03-23T21:00:31;5.10;;;3.30;;
46365;SDS011;32073;49.166;8.076;2023-03-23T21:04:32;3.35;;;2.60;;
46365;SDS011;32073;49.166;8.076;2023-03-23T21:08:33;4.72;;;2.70;;
46365;SDS011;32073;49.166;8.076;2023-03-23T21:12:36;5.45;;;3.20;;
46365;SDS011;32073;49.166;8.076;2023-03-23T21:16:36;4.28;;;2.97;;
46365;SDS011;32073;49.166;8.076;2023-03-23T21:20:38;4.28;;;2.85;;
46365;SDS011;32073;49.166;8.076;2023-03-23T21:24:39;3.60;;;2.35;;
46365;SDS011;32073;49.166;8.076;2023-03-23T21:28:40;2.42;;;1.80;;
46365;SDS011;32073;49.166;8.076;2023-03-23T21:32:41;4.18;;;2.60;;
46365;SDS011;32073;49.166;8.076;2023-03-23T21:36:42;3.60;;;2.53;;
46365;SDS011;32073;49.166;8.076;2023-03-23T21:40:43;4.00;;;2.33;;
46365;SDS011;32073;49.166;8.076;2023-03-23T21:44:43;5.45;;;3.35;;
46365;SDS011;32073;49.166;8.076;2023-03-23T21:48:45;3.67;;;2.45;;
46365;SDS011;32073;49.166;8.076;2023-03-23T21:52:50;6.75;;;3.83;;
46365;SDS011;32073;49.166;8.076;2023-03-23T21:56:51;4.90;;;2.50;;
46365;SDS011;32073;49.166;8.076;2023-03-23T22:00:52;3.25;;;2.03;;
46365;SDS011;32073;49.166;8.076;2023-03-23T22:04:54;5.00;;;2.70;;
46365;SDS011;32073;49.166;8.076;2023-03-23T22:08:55;3.10;;;2.17;;
46365;SDS011;32073;49.166;8.076;2023-03-23T22:12:56;4.05;;;2.25;;
46365;SDS011;32073;49.166;8.076;2023-03-23T22:16:57;3.35;;;2.20;;
46365;SDS011;32073;49.166;8.076;2023-03-23T22:20:59;3.30;;;2.25;;
46365;SDS011;32073;49.166;8.076;2023-03-23T22:25:00;3.80;;;2.40;;
46365;SDS011;32073;49.166;8.076;2023-03-23T22:29:02;3.78;;;2.28;;
46365;SDS011;32073;49.166;8.076;2023-03-23T22:33:03;3.40;;;1.70;;
46365;SDS011;32073;49.166;8.076;2023-03-23T22:37:04;2.13;;;1.70;;
46365;SDS011;32073;49.166;8.076;2023-03-23T22:41:05;2.70;;;1.85;;
46365;SDS011;32073;49.166;8.076;2023-03-23T22:45:07;2.85;;;1.90;;
46365;SDS011;32073;49.166;8.076;2023-03-23T22:49:08;2.15;;;1.60;;
46365;SDS011;32073;49.166;8.076;2023-03-23T22:53:10;3.17;;;1.80;;
46365;SDS011;32073;49.166;8.076;2023-03-23T22:57:11;3.15;;;1.92;;
46365;SDS011;32073;49.166;8.076;2023-03-23T23:01:16;3.78;;;2.00;;
46365;SDS011;32073;49.166;8.076;2023-03-23T23:05:20;2.63;;;1.75;;
46365;SDS011;32073;49.166;8.076;2023-03-23T23:09:21;2.92;;;1.92;;
46365;SDS011;32073;49.166;8.076;2023-03-23T23:13:22;2.13;;;1.65;;
46365;SDS011;32073;49.166;8.076;2023-03-23T23:17:24;3.60;;;1.85;;
46365;SDS011;32073;49.166;8.076;2023-03-23T23:21:25;3.83;;;2.08;;
46365;SDS011;32073;49.166;8.076;2023-03-23T23:25:28;3.40;;;2.17;;
46365;SDS011;32073;49.166;8.076;2023-03-23T23:29:29;3.60;;;2.20;;
46365;SDS011;32073;49.166;8.076;2023-03-23T23:33:31;4.50;;;2.30;;
46365;SDS011;32073;49.166;8.076;2023-03-23T23:37:31;3.53;;;1.92;;
46365;SDS011;32073;49.166;8.076;2023-03-23T23:41:35;4.35;;;2.22;;
46365;SDS011;32073;49.166;8.076;2023-03-23T23:45:37;2.30;;;1.75;;
46365;SDS011;32073;49.166;8.076;2023-03-23T23:49:38;2.75;;;1.55;;
46365;SDS011;32073;49.166;8.076;2023-03-23T23:53:39;3.05;;;1.77;;
46365;SDS011;32073;49.166;8.076;2023-03-23T23:57:43;2.58;;;1.90;;
